Acme, Wyoming
Current Conditions -  °F | °C
As of 6:53 AM on Saturday 20 Dec 2014 (Local Time) from KSHR Reporting Station
Clear Clear  
Wind Chill: -5°   Ceiling: Unl
Heat Index: -5°   Visibility: 10mi
Dew Point: -9°   Wind: 0mph
Humidity: 74%   Direction: NA
Pressure: 29.91"   Gusts: NA
Location:  44.8885°N, 107.104°W
Report Text: KSHR 201353Z AUTO 00000KT 10SM CLR M05/M09 A2991 RMK AO2 SLP168 T10501089
Loading
Personal Weather Stations






























Interactive Weather Map New forecast layout! Learn more

10-Day Weather Forecast

Advertisements
Track Severe Weather on mobile